sensor_id;sensor_type;location;lat;lon;timestamp;P1;durP1;ratioP1;P2;durP2;ratioP2
43146;SDS011;28752;48.266;7.402;2023-09-19T00:01:17;3.75;;;1.20;;
43146;SDS011;28752;48.266;7.402;2023-09-19T00:03:44;4.18;;;1.20;;
43146;SDS011;28752;48.266;7.402;2023-09-19T00:06:10;2.83;;;1.13;;
43146;SDS011;28752;48.266;7.402;2023-09-19T00:08:35;4.03;;;0.90;;
43146;SDS011;28752;48.266;7.402;2023-09-19T00:11:00;3.23;;;1.00;;
43146;SDS011;28752;48.266;7.402;2023-09-19T00:13:27;2.40;;;1.10;;
43146;SDS011;28752;48.266;7.402;2023-09-19T00:15:53;3.28;;;1.42;;
43146;SDS011;28752;48.266;7.402;2023-09-19T00:18:20;2.90;;;1.00;;
43146;SDS011;28752;48.266;7.402;2023-09-19T00:20:46;3.50;;;1.13;;
43146;SDS011;28752;48.266;7.402;2023-09-19T00:23:13;3.30;;;1.10;;
43146;SDS011;28752;48.266;7.402;2023-09-19T00:25:38;3.13;;;1.23;;
43146;SDS011;28752;48.266;7.402;2023-09-19T00:28:05;4.20;;;1.08;;
43146;SDS011;28752;48.266;7.402;2023-09-19T00:30:32;2.75;;;1.20;;
43146;SDS011;28752;48.266;7.402;2023-09-19T00:32:58;3.03;;;1.30;;
43146;SDS011;28752;48.266;7.402;2023-09-19T00:35:23;3.73;;;1.03;;
43146;SDS011;28752;48.266;7.402;2023-09-19T00:37:49;3.13;;;1.00;;
43146;SDS011;28752;48.266;7.402;2023-09-19T00:40:15;5.65;;;1.25;;
43146;SDS011;28752;48.266;7.402;2023-09-19T00:42:42;4.20;;;1.05;;
43146;SDS011;28752;48.266;7.402;2023-09-19T00:45:08;3.65;;;1.10;;
43146;SDS011;28752;48.266;7.402;2023-09-19T00:47:36;2.30;;;1.20;;
43146;SDS011;28752;48.266;7.402;2023-09-19T00:50:02;4.15;;;1.40;;
43146;SDS011;28752;48.266;7.402;2023-09-19T00:52:29;3.10;;;1.23;;
43146;SDS011;28752;48.266;7.402;2023-09-19T00:54:57;4.57;;;1.38;;
43146;SDS011;28752;48.266;7.402;2023-09-19T00:57:25;2.60;;;1.05;;
43146;SDS011;28752;48.266;7.402;2023-09-19T00:59:50;2.85;;;1.20;;
43146;SDS011;28752;48.266;7.402;2023-09-19T01:02:19;4.22;;;1.23;;
43146;SDS011;28752;48.266;7.402;2023-09-19T01:04:46;3.47;;;1.20;;
43146;SDS011;28752;48.266;7.402;2023-09-19T01:07:11;3.47;;;1.20;;
43146;SDS011;28752;48.266;7.402;2023-09-19T01:09:37;3.10;;;1.00;;
43146;SDS011;28752;48.266;7.402;2023-09-19T01:12:04;3.78;;;1.33;;
43146;SDS011;28752;48.266;7.402;2023-09-19T01:22:42;2.78;;;1.08;;
43146;SDS011;28752;48.266;7.402;2023-09-19T01:28:04;3.40;;;1.10;;
43146;SDS011;28752;48.266;7.402;2023-09-19T01:30:40;3.92;;;0.88;;
43146;SDS011;28752;48.266;7.402;2023-09-19T01:33:08;4.95;;;1.08;;
43146;SDS011;28752;48.266;7.402;2023-09-19T01:35:37;6.03;;;1.33;;
43146;SDS011;28752;48.266;7.402;2023-09-19T01:38:04;5.15;;;1.23;;
43146;SDS011;28752;48.266;7.402;2023-09-19T01:40:31;8.40;;;1.10;;
43146;SDS011;28752;48.266;7.402;2023-09-19T01:45:41;4.10;;;1.00;;
43146;SDS011;28752;48.266;7.402;2023-09-19T01:51:30;4.78;;;1.05;;
43146;SDS011;28752;48.266;7.402;2023-09-19T01:54:03;5.00;;;1.17;;
43146;SDS011;28752;48.266;7.402;2023-09-19T01:56:45;5.38;;;1.10;;
43146;SDS011;28752;48.266;7.402;2023-09-19T01:59:17;4.22;;;1.20;;
43146;SDS011;28752;48.266;7.402;2023-09-19T02:01:49;5.35;;;1.50;;
43146;SDS011;28752;48.266;7.402;2023-09-19T02:04:18;3.95;;;1.02;;
43146;SDS011;28752;48.266;7.402;2023-09-19T02:06:43;5.23;;;1.13;;
43146;SDS011;28752;48.266;7.402;2023-09-19T02:09:12;5.82;;;1.30;;
43146;SDS011;28752;48.266;7.402;2023-09-19T02:11:39;3.70;;;1.10;;
43146;SDS011;28752;48.266;7.402;2023-09-19T02:16:33;5.47;;;1.23;;
43146;SDS011;28752;48.266;7.402;2023-09-19T02:18:59;6.22;;;1.25;;
43146;SDS011;28752;48.266;7.402;2023-09-19T02:21:25;6.85;;;1.35;;
43146;SDS011;28752;48.266;7.402;2023-09-19T02:23:50;3.13;;;1.25;;
43146;SDS011;28752;48.266;7.402;2023-09-19T02:26:16;3.22;;;1.30;;
43146;SDS011;28752;48.266;7.402;2023-09-19T02:28:43;5.32;;;1.20;;
43146;SDS011;28752;48.266;7.402;2023-09-19T02:31:10;4.47;;;1.25;;
43146;SDS011;28752;48.266;7.402;2023-09-19T02:33:36;6.40;;;1.30;;
43146;SDS011;28752;48.266;7.402;2023-09-19T02:36:02;3.25;;;1.13;;
43146;SDS011;28752;48.266;7.402;2023-09-19T02:38:30;7.00;;;1.33;;
43146;SDS011;28752;48.266;7.402;2023-09-19T02:40:55;4.57;;;1.10;;
43146;SDS011;28752;48.266;7.402;2023-09-19T02:43:21;5.97;;;1.60;;
43146;SDS011;28752;48.266;7.402;2023-09-19T02:48:18;5.75;;;1.10;;
43146;SDS011;28752;48.266;7.402;2023-09-19T02:50:43;9.10;;;1.55;;
43146;SDS011;28752;48.266;7.402;2023-09-19T02:53:09;5.43;;;1.30;;
43146;SDS011;28752;48.266;7.402;2023-09-19T02:55:37;3.33;;;1.20;;
43146;SDS011;28752;48.266;7.402;2023-09-19T02:58:05;2.85;;;1.25;;
43146;SDS011;28752;48.266;7.402;2023-09-19T03:00:32;6.85;;;1.30;;
43146;SDS011;28752;48.266;7.402;2023-09-19T03:03:00;7.18;;;1.23;;
43146;SDS011;28752;48.266;7.402;2023-09-19T03:05:27;5.88;;;1.40;;
43146;SDS011;28752;48.266;7.402;2023-09-19T03:07:56;3.95;;;1.15;;
43146;SDS011;28752;48.266;7.402;2023-09-19T03:10:21;4.32;;;1.42;;
43146;SDS011;28752;48.266;7.402;2023-09-19T03:12:49;3.38;;;1.23;;
43146;SDS011;28752;48.266;7.402;2023-09-19T03:15:15;6.60;;;1.30;;
43146;SDS011;28752;48.266;7.402;2023-09-19T03:17:44;8.50;;;1.40;;
43146;SDS011;28752;48.266;7.402;2023-09-19T03:20:10;3.65;;;1.38;;
43146;SDS011;28752;48.266;7.402;2023-09-19T03:22:38;4.85;;;1.40;;
43146;SDS011;28752;48.266;7.402;2023-09-19T03:25:04;6.00;;;1.63;;
43146;SDS011;28752;48.266;7.402;2023-09-19T03:27:33;3.95;;;1.27;;
43146;SDS011;28752;48.266;7.402;2023-09-19T03:29:59;6.70;;;1.50;;
43146;SDS011;28752;48.266;7.402;2023-09-19T03:32:25;4.10;;;1.52;;
43146;SDS011;28752;48.266;7.402;2023-09-19T03:34:51;5.55;;;1.50;;
43146;SDS011;28752;48.266;7.402;2023-09-19T03:37:17;3.22;;;1.30;;
43146;SDS011;28752;48.266;7.402;2023-09-19T03:39:43;3.60;;;1.17;;
43146;SDS011;28752;48.266;7.402;2023-09-19T03:42:10;7.10;;;1.80;;
43146;SDS011;28752;48.266;7.402;2023-09-19T03:44:35;2.33;;;1.13;;
43146;SDS011;28752;48.266;7.402;2023-09-19T03:47:00;2.70;;;1.10;;
43146;SDS011;28752;48.266;7.402;2023-09-19T03:49:26;3.53;;;1.00;;
43146;SDS011;28752;48.266;7.402;2023-09-19T03:51:51;3.00;;;1.30;;
43146;SDS011;28752;48.266;7.402;2023-09-19T03:54:17;2.93;;;1.00;;
43146;SDS011;28752;48.266;7.402;2023-09-19T03:56:44;2.30;;;1.17;;
43146;SDS011;28752;48.266;7.402;2023-09-19T03:59:09;3.88;;;1.02;;
43146;SDS011;28752;48.266;7.402;2023-09-19T04:01:35;2.88;;;1.13;;
43146;SDS011;28752;48.266;7.402;2023-09-19T04:04:01;3.67;;;1.15;;
43146;SDS011;28752;48.266;7.402;2023-09-19T04:06:33;3.85;;;1.20;;
43146;SDS011;28752;48.266;7.402;2023-09-19T04:09:00;11.15;;;1.23;;
43146;SDS011;28752;48.266;7.402;2023-09-19T04:11:26;3.83;;;0.98;;
43146;SDS011;28752;48.266;7.402;2023-09-19T04:13:52;4.57;;;1.20;;
43146;SDS011;28752;48.266;7.402;2023-09-19T04:16:17;4.13;;;1.13;;
43146;SDS011;28752;48.266;7.402;2023-09-19T04:18:42;3.00;;;1.03;;
43146;SDS011;28752;48.266;7.402;2023-09-19T04:21:08;2.95;;;1.00;;
43146;SDS011;28752;48.266;7.402;2023-09-19T04:23:34;2.07;;;0.93;;
43146;SDS011;28752;48.266;7.402;2023-09-19T04:25:59;5.05;;;1.23;;
43146;SDS011;28752;48.266;7.402;2023-09-19T04:28:25;1.93;;;0.87;;
43146;SDS011;28752;48.266;7.402;2023-09-19T04:30:52;3.15;;;1.15;;
43146;SDS011;28752;48.266;7.402;2023-09-19T04:33:18;2.42;;;0.93;;
43146;SDS011;28752;48.266;7.402;2023-09-19T04:35:43;2.07;;;1.00;;
43146;SDS011;28752;48.266;7.402;2023-09-19T04:38:09;4.50;;;1.20;;
43146;SDS011;28752;48.266;7.402;2023-09-19T04:40:34;3.07;;;1.03;;
43146;SDS011;28752;48.266;7.402;2023-09-19T04:43:00;5.72;;;1.63;;
43146;SDS011;28752;48.266;7.402;2023-09-19T04:45:26;2.95;;;1.10;;
43146;SDS011;28752;48.266;7.402;2023-09-19T04:50:18;3.20;;;1.30;;
43146;SDS011;28752;48.266;7.402;2023-09-19T04:52:44;6.15;;;1.17;;
43146;SDS011;28752;48.266;7.402;2023-09-19T04:55:10;4.85;;;1.20;;
43146;SDS011;28752;48.266;7.402;2023-09-19T04:57:38;9.43;;;1.58;;
43146;SDS011;28752;48.266;7.402;2023-09-19T05:00:04;3.42;;;1.13;;
43146;SDS011;28752;48.266;7.402;2023-09-19T05:02:37;3.50;;;1.20;;
43146;SDS011;28752;48.266;7.402;2023-09-19T05:05:02;6.13;;;1.17;;
43146;SDS011;28752;48.266;7.402;2023-09-19T05:07:29;3.05;;;1.00;;
43146;SDS011;28752;48.266;7.402;2023-09-19T05:09:55;2.77;;;1.10;;
43146;SDS011;28752;48.266;7.402;2023-09-19T05:12:20;3.80;;;1.10;;
43146;SDS011;28752;48.266;7.402;2023-09-19T05:14:45;3.10;;;1.33;;
43146;SDS011;28752;48.266;7.402;2023-09-19T05:17:11;2.37;;;1.07;;
43146;SDS011;28752;48.266;7.402;2023-09-19T05:19:36;2.87;;;1.20;;
43146;SDS011;28752;48.266;7.402;2023-09-19T05:22:01;3.33;;;1.10;;
43146;SDS011;28752;48.266;7.402;2023-09-19T05:24:29;3.55;;;0.90;;
43146;SDS011;28752;48.266;7.402;2023-09-19T05:26:55;3.22;;;1.30;;
43146;SDS011;28752;48.266;7.402;2023-09-19T05:29:22;2.45;;;1.00;;
43146;SDS011;28752;48.266;7.402;2023-09-19T05:31:47;3.77;;;1.00;;
43146;SDS011;28752;48.266;7.402;2023-09-19T05:34:12;2.80;;;1.20;;
43146;SDS011;28752;48.266;7.402;2023-09-19T05:36:39;2.83;;;1.00;;
43146;SDS011;28752;48.266;7.402;2023-09-19T05:39:04;2.67;;;1.00;;
43146;SDS011;28752;48.266;7.402;2023-09-19T05:41:31;4.57;;;1.20;;
43146;SDS011;28752;48.266;7.402;2023-09-19T05:43:56;4.77;;;1.20;;
43146;SDS011;28752;48.266;7.402;2023-09-19T05:46:24;3.63;;;1.10;;
43146;SDS011;28752;48.266;7.402;2023-09-19T05:48:54;3.28;;;1.20;;
43146;SDS011;28752;48.266;7.402;2023-09-19T05:51:21;4.20;;;1.20;;
43146;SDS011;28752;48.266;7.402;2023-09-19T05:53:47;4.63;;;1.40;;
43146;SDS011;28752;48.266;7.402;2023-09-19T05:56:13;2.63;;;1.30;;
43146;SDS011;28752;48.266;7.402;2023-09-19T05:58:40;3.15;;;1.10;;
43146;SDS011;28752;48.266;7.402;2023-09-19T06:01:07;3.63;;;1.15;;
43146;SDS011;28752;48.266;7.402;2023-09-19T06:03:34;3.55;;;1.15;;
43146;SDS011;28752;48.266;7.402;2023-09-19T06:06:00;6.43;;;1.40;;
43146;SDS011;28752;48.266;7.402;2023-09-19T06:08:29;3.05;;;1.40;;
43146;SDS011;28752;48.266;7.402;2023-09-19T06:10:56;4.38;;;1.30;;
43146;SDS011;28752;48.266;7.402;2023-09-19T06:13:21;2.97;;;1.00;;
43146;SDS011;28752;48.266;7.402;2023-09-19T06:15:47;3.63;;;1.10;;
43146;SDS011;28752;48.266;7.402;2023-09-19T06:18:12;3.05;;;1.10;;
43146;SDS011;28752;48.266;7.402;2023-09-19T06:20:42;4.45;;;1.17;;
43146;SDS011;28752;48.266;7.402;2023-09-19T06:23:09;4.55;;;1.33;;
43146;SDS011;28752;48.266;7.402;2023-09-19T06:25:35;3.17;;;1.20;;
43146;SDS011;28752;48.266;7.402;2023-09-19T06:28:00;3.13;;;1.10;;
43146;SDS011;28752;48.266;7.402;2023-09-19T06:30:29;4.65;;;1.63;;
43146;SDS011;28752;48.266;7.402;2023-09-19T06:32:59;2.35;;;0.80;;
43146;SDS011;28752;48.266;7.402;2023-09-19T06:35:25;3.00;;;0.85;;
43146;SDS011;28752;48.266;7.402;2023-09-19T06:37:51;3.80;;;1.02;;
43146;SDS011;28752;48.266;7.402;2023-09-19T06:40:17;3.88;;;1.10;;
43146;SDS011;28752;48.266;7.402;2023-09-19T06:42:45;3.88;;;1.00;;
43146;SDS011;28752;48.266;7.402;2023-09-19T06:45:15;5.65;;;1.00;;
43146;SDS011;28752;48.266;7.402;2023-09-19T06:47:47;3.38;;;0.80;;
43146;SDS011;28752;48.266;7.402;2023-09-19T06:50:17;4.72;;;1.02;;
43146;SDS011;28752;48.266;7.402;2023-09-19T06:52:47;2.72;;;0.80;;
43146;SDS011;28752;48.266;7.402;2023-09-19T06:55:18;2.78;;;1.08;;
43146;SDS011;28752;48.266;7.402;2023-09-19T06:57:45;3.47;;;0.90;;
43146;SDS011;28752;48.266;7.402;2023-09-19T07:00:13;3.60;;;0.90;;
43146;SDS011;28752;48.266;7.402;2023-09-19T07:02:44;3.65;;;1.20;;
43146;SDS011;28752;48.266;7.402;2023-09-19T07:05:09;3.53;;;0.95;;
43146;SDS011;28752;48.266;7.402;2023-09-19T07:07:35;4.18;;;1.45;;
43146;SDS011;28752;48.266;7.402;2023-09-19T07:10:01;3.33;;;1.13;;
43146;SDS011;28752;48.266;7.402;2023-09-19T07:12:27;3.90;;;0.90;;
43146;SDS011;28752;48.266;7.402;2023-09-19T07:17:18;3.50;;;0.87;;
43146;SDS011;28752;48.266;7.402;2023-09-19T07:19:44;3.38;;;1.13;;
43146;SDS011;28752;48.266;7.402;2023-09-19T07:24:35;3.30;;;1.10;;
43146;SDS011;28752;48.266;7.402;2023-09-19T07:29:27;4.20;;;0.85;;
43146;SDS011;28752;48.266;7.402;2023-09-19T07:31:52;2.75;;;1.02;;
43146;SDS011;28752;48.266;7.402;2023-09-19T07:34:18;3.28;;;0.90;;
43146;SDS011;28752;48.266;7.402;2023-09-19T07:36:43;5.38;;;1.40;;
43146;SDS011;28752;48.266;7.402;2023-09-19T07:41:34;4.50;;;1.13;;
43146;SDS011;28752;48.266;7.402;2023-09-19T07:43:59;3.88;;;1.10;;
43146;SDS011;28752;48.266;7.402;2023-09-19T07:46:25;2.75;;;1.00;;
43146;SDS011;28752;48.266;7.402;2023-09-19T07:48:51;3.25;;;1.00;;
43146;SDS011;28752;48.266;7.402;2023-09-19T07:53:42;2.90;;;0.93;;
43146;SDS011;28752;48.266;7.402;2023-09-19T07:58:33;4.57;;;1.00;;
43146;SDS011;28752;48.266;7.402;2023-09-19T08:01:06;3.67;;;0.90;;
43146;SDS011;28752;48.266;7.402;2023-09-19T08:03:32;3.05;;;1.00;;
43146;SDS011;28752;48.266;7.402;2023-09-19T08:05:59;2.42;;;0.90;;
43146;SDS011;28752;48.266;7.402;2023-09-19T08:08:25;4.13;;;0.80;;
43146;SDS011;28752;48.266;7.402;2023-09-19T08:10:54;2.85;;;1.08;;
43146;SDS011;28752;48.266;7.402;2023-09-19T08:13:22;4.25;;;1.25;;
43146;SDS011;28752;48.266;7.402;2023-09-19T08:15:48;3.17;;;1.02;;
43146;SDS011;28752;48.266;7.402;2023-09-19T08:18:14;2.70;;;0.90;;
43146;SDS011;28752;48.266;7.402;2023-09-19T08:20:40;4.03;;;1.35;;
43146;SDS011;28752;48.266;7.402;2023-09-19T08:23:07;3.97;;;1.40;;
43146;SDS011;28752;48.266;7.402;2023-09-19T08:25:33;4.47;;;0.95;;
43146;SDS011;28752;48.266;7.402;2023-09-19T08:27:59;2.72;;;1.10;;
43146;SDS011;28752;48.266;7.402;2023-09-19T08:30:27;2.42;;;0.90;;
43146;SDS011;28752;48.266;7.402;2023-09-19T08:32:58;3.47;;;0.95;;
43146;SDS011;28752;48.266;7.402;2023-09-19T08:35:23;4.13;;;1.30;;
43146;SDS011;28752;48.266;7.402;2023-09-19T08:37:49;2.83;;;0.98;;
43146;SDS011;28752;48.266;7.402;2023-09-19T08:40:14;3.13;;;0.90;;
43146;SDS011;28752;48.266;7.402;2023-09-19T08:42:52;3.08;;;1.38;;
43146;SDS011;28752;48.266;7.402;2023-09-19T08:45:20;5.22;;;1.10;;
43146;SDS011;28752;48.266;7.402;2023-09-19T08:50:57;2.75;;;1.00;;
43146;SDS011;28752;48.266;7.402;2023-09-19T08:56:08;2.58;;;1.05;;
43146;SDS011;28752;48.266;7.402;2023-09-19T08:58:38;3.35;;;1.10;;
43146;SDS011;28752;48.266;7.402;2023-09-19T09:01:09;3.53;;;0.90;;
43146;SDS011;28752;48.266;7.402;2023-09-19T09:03:35;2.40;;;1.00;;
43146;SDS011;28752;48.266;7.402;2023-09-19T09:06:02;2.90;;;1.25;;
43146;SDS011;28752;48.266;7.402;2023-09-19T09:10:55;2.15;;;0.73;;
43146;SDS011;28752;48.266;7.402;2023-09-19T09:13:22;3.47;;;1.17;;
43146;SDS011;28752;48.266;7.402;2023-09-19T09:15:51;2.42;;;0.90;;
43146;SDS011;28752;48.266;7.402;2023-09-19T09:18:16;2.13;;;0.90;;
43146;SDS011;28752;48.266;7.402;2023-09-19T09:23:09;2.72;;;1.00;;
43146;SDS011;28752;48.266;7.402;2023-09-19T09:25:53;3.83;;;1.10;;
43146;SDS011;28752;48.266;7.402;2023-09-19T09:28:23;2.35;;;0.93;;
43146;SDS011;28752;48.266;7.402;2023-09-19T09:30:50;3.17;;;0.98;;
43146;SDS011;28752;48.266;7.402;2023-09-19T09:38:23;2.97;;;1.13;;
43146;SDS011;28752;48.266;7.402;2023-09-19T09:40:52;3.35;;;1.00;;
43146;SDS011;28752;48.266;7.402;2023-09-19T09:51:46;1.75;;;0.80;;
43146;SDS011;28752;48.266;7.402;2023-09-19T09:54:22;4.72;;;1.10;;
43146;SDS011;28752;48.266;7.402;2023-09-19T09:56:53;3.88;;;1.02;;
43146;SDS011;28752;48.266;7.402;2023-09-19T09:59:58;3.45;;;0.88;;
43146;SDS011;28752;48.266;7.402;2023-09-19T10:02:37;1.85;;;0.70;;
43146;SDS011;28752;48.266;7.402;2023-09-19T10:05:11;2.65;;;0.90;;
43146;SDS011;28752;48.266;7.402;2023-09-19T10:07:53;2.67;;;0.80;;
43146;SDS011;28752;48.266;7.402;2023-09-19T10:10:36;1.52;;;0.60;;
43146;SDS011;28752;48.266;7.402;2023-09-19T10:13:29;1.55;;;0.80;;
43146;SDS011;28752;48.266;7.402;2023-09-19T10:15:56;2.30;;;0.90;;
43146;SDS011;28752;48.266;7.402;2023-09-19T10:18:24;2.90;;;0.88;;
43146;SDS011;28752;48.266;7.402;2023-09-19T10:20:51;2.80;;;0.80;;
43146;SDS011;28752;48.266;7.402;2023-09-19T10:23:18;2.78;;;1.05;;
43146;SDS011;28752;48.266;7.402;2023-09-19T10:25:48;3.40;;;0.82;;
43146;SDS011;28752;48.266;7.402;2023-09-19T10:28:15;3.35;;;0.93;;
43146;SDS011;28752;48.266;7.402;2023-09-19T10:30:45;2.60;;;0.80;;
43146;SDS011;28752;48.266;7.402;2023-09-19T10:33:12;1.95;;;0.70;;
43146;SDS011;28752;48.266;7.402;2023-09-19T10:35:40;3.85;;;1.00;;
43146;SDS011;28752;48.266;7.402;2023-09-19T10:38:09;1.70;;;0.70;;
43146;SDS011;28752;48.266;7.402;2023-09-19T10:40:36;2.05;;;0.90;;
43146;SDS011;28752;48.266;7.402;2023-09-19T10:43:08;2.85;;;0.95;;
43146;SDS011;28752;48.266;7.402;2023-09-19T10:45:42;1.98;;;0.80;;
43146;SDS011;28752;48.266;7.402;2023-09-19T10:48:09;1.90;;;0.80;;
43146;SDS011;28752;48.266;7.402;2023-09-19T10:53:10;2.53;;;0.93;;
43146;SDS011;28752;48.266;7.402;2023-09-19T10:55:37;3.95;;;0.77;;
43146;SDS011;28752;48.266;7.402;2023-09-19T10:58:03;3.33;;;0.70;;
43146;SDS011;28752;48.266;7.402;2023-09-19T11:00:55;1.85;;;0.80;;
43146;SDS011;28752;48.266;7.402;2023-09-19T11:03:26;3.00;;;0.88;;
43146;SDS011;28752;48.266;7.402;2023-09-19T11:08:29;2.40;;;0.82;;
43146;SDS011;28752;48.266;7.402;2023-09-19T11:10:57;2.22;;;0.80;;
43146;SDS011;28752;48.266;7.402;2023-09-19T11:13:24;4.03;;;0.82;;
43146;SDS011;28752;48.266;7.402;2023-09-19T11:29:32;2.67;;;0.90;;
43146;SDS011;28752;48.266;7.402;2023-09-19T11:31:58;2.67;;;0.80;;
43146;SDS011;28752;48.266;7.402;2023-09-19T11:42:47;2.85;;;0.90;;
43146;SDS011;28752;48.266;7.402;2023-09-19T11:46:00;3.63;;;0.90;;
43146;SDS011;28752;48.266;7.402;2023-09-19T11:48:05;2.13;;;0.60;;
43146;SDS011;28752;48.266;7.402;2023-09-19T11:50:32;2.08;;;0.50;;
43146;SDS011;28752;48.266;7.402;2023-09-19T11:53:01;2.00;;;0.65;;
43146;SDS011;28752;48.266;7.402;2023-09-19T11:55:28;1.63;;;0.65;;
43146;SDS011;28752;48.266;7.402;2023-09-19T11:57:57;2.00;;;0.63;;
43146;SDS011;28752;48.266;7.402;2023-09-19T12:00:24;1.63;;;0.70;;
43146;SDS011;28752;48.266;7.402;2023-09-19T12:02:52;1.95;;;0.80;;
43146;SDS011;28752;48.266;7.402;2023-09-19T12:05:29;2.92;;;0.70;;
43146;SDS011;28752;48.266;7.402;2023-09-19T12:07:54;1.48;;;0.70;;
43146;SDS011;28752;48.266;7.402;2023-09-19T12:10:20;2.42;;;0.80;;
43146;SDS011;28752;48.266;7.402;2023-09-19T12:12:47;1.35;;;0.50;;
43146;SDS011;28752;48.266;7.402;2023-09-19T12:15:14;1.60;;;0.93;;
43146;SDS011;28752;48.266;7.402;2023-09-19T12:17:41;1.55;;;0.60;;
43146;SDS011;28752;48.266;7.402;2023-09-19T12:20:10;2.15;;;0.70;;
43146;SDS011;28752;48.266;7.402;2023-09-19T12:22:44;3.50;;;0.80;;
43146;SDS011;28752;48.266;7.402;2023-09-19T12:25:14;1.90;;;0.80;;
43146;SDS011;28752;48.266;7.402;2023-09-19T12:27:46;1.75;;;0.68;;
43146;SDS011;28752;48.266;7.402;2023-09-19T12:30:13;1.85;;;0.65;;
43146;SDS011;28752;48.266;7.402;2023-09-19T12:32:40;1.60;;;0.70;;
43146;SDS011;28752;48.266;7.402;2023-09-19T12:35:07;3.63;;;0.77;;
43146;SDS011;28752;48.266;7.402;2023-09-19T12:37:35;2.83;;;0.70;;
43146;SDS011;28752;48.266;7.402;2023-09-19T12:42:44;1.58;;;0.70;;
43146;SDS011;28752;48.266;7.402;2023-09-19T12:45:11;1.60;;;0.70;;
43146;SDS011;28752;48.266;7.402;2023-09-19T12:47:40;1.27;;;0.60;;
43146;SDS011;28752;48.266;7.402;2023-09-19T12:50:26;1.45;;;0.55;;
43146;SDS011;28752;48.266;7.402;2023-09-19T12:52:54;3.03;;;0.80;;
43146;SDS011;28752;48.266;7.402;2023-09-19T12:57:55;1.58;;;0.80;;
43146;SDS011;28752;48.266;7.402;2023-09-19T13:00:44;2.45;;;0.80;;
43146;SDS011;28752;48.266;7.402;2023-09-19T13:05:56;1.15;;;0.60;;
43146;SDS011;28752;48.266;7.402;2023-09-19T13:08:29;2.67;;;0.60;;
43146;SDS011;28752;48.266;7.402;2023-09-19T13:11:13;1.83;;;0.75;;
43146;SDS011;28752;48.266;7.402;2023-09-19T13:16:14;2.72;;;0.68;;
43146;SDS011;28752;48.266;7.402;2023-09-19T13:18:44;2.05;;;0.65;;
43146;SDS011;28752;48.266;7.402;2023-09-19T13:21:12;0.82;;;0.55;;
43146;SDS011;28752;48.266;7.402;2023-09-19T13:23:51;1.95;;;0.63;;
43146;SDS011;28752;48.266;7.402;2023-09-19T13:26:19;1.83;;;0.57;;
43146;SDS011;28752;48.266;7.402;2023-09-19T13:31:12;1.48;;;0.65;;
43146;SDS011;28752;48.266;7.402;2023-09-19T13:33:45;1.77;;;0.60;;
43146;SDS011;28752;48.266;7.402;2023-09-19T13:36:12;2.13;;;0.80;;
43146;SDS011;28752;48.266;7.402;2023-09-19T13:38:41;2.47;;;0.50;;
43146;SDS011;28752;48.266;7.402;2023-09-19T13:41:13;1.97;;;0.50;;
43146;SDS011;28752;48.266;7.402;2023-09-19T13:43:42;1.23;;;0.70;;
43146;SDS011;28752;48.266;7.402;2023-09-19T13:46:09;2.95;;;0.63;;
43146;SDS011;28752;48.266;7.402;2023-09-19T13:48:40;1.27;;;0.45;;
43146;SDS011;28752;48.266;7.402;2023-09-19T13:53:30;0.90;;;0.53;;
43146;SDS011;28752;48.266;7.402;2023-09-19T13:58:21;1.55;;;0.65;;
43146;SDS011;28752;48.266;7.402;2023-09-19T14:00:47;1.02;;;0.52;;
43146;SDS011;28752;48.266;7.402;2023-09-19T14:03:14;2.55;;;0.70;;
43146;SDS011;28752;48.266;7.402;2023-09-19T14:05:40;2.38;;;0.60;;
43146;SDS011;28752;48.266;7.402;2023-09-19T14:08:07;1.77;;;0.60;;
43146;SDS011;28752;48.266;7.402;2023-09-19T14:12:59;1.27;;;0.60;;
43146;SDS011;28752;48.266;7.402;2023-09-19T14:15:26;1.75;;;0.55;;
43146;SDS011;28752;48.266;7.402;2023-09-19T14:17:57;1.55;;;0.50;;
43146;SDS011;28752;48.266;7.402;2023-09-19T14:20:24;2.58;;;0.68;;
43146;SDS011;28752;48.266;7.402;2023-09-19T14:22:51;1.42;;;0.50;;
43146;SDS011;28752;48.266;7.402;2023-09-19T14:25:17;1.17;;;0.50;;
43146;SDS011;28752;48.266;7.402;2023-09-19T14:30:07;1.17;;;0.60;;
43146;SDS011;28752;48.266;7.402;2023-09-19T14:32:34;1.20;;;0.40;;
43146;SDS011;28752;48.266;7.402;2023-09-19T14:37:25;2.10;;;0.70;;
43146;SDS011;28752;48.266;7.402;2023-09-19T14:39:53;1.38;;;0.60;;
43146;SDS011;28752;48.266;7.402;2023-09-19T14:42:18;1.25;;;0.70;;
43146;SDS011;28752;48.266;7.402;2023-09-19T14:44:43;2.67;;;0.70;;
43146;SDS011;28752;48.266;7.402;2023-09-19T14:47:09;2.35;;;0.60;;
43146;SDS011;28752;48.266;7.402;2023-09-19T14:49:39;2.05;;;0.77;;
43146;SDS011;28752;48.266;7.402;2023-09-19T14:52:08;1.90;;;0.60;;
43146;SDS011;28752;48.266;7.402;2023-09-19T14:54:34;1.38;;;0.60;;
43146;SDS011;28752;48.266;7.402;2023-09-19T14:57:00;1.45;;;0.70;;
43146;SDS011;28752;48.266;7.402;2023-09-19T14:59:33;1.85;;;0.70;;
43146;SDS011;28752;48.266;7.402;2023-09-19T15:02:02;2.20;;;0.90;;
43146;SDS011;28752;48.266;7.402;2023-09-19T15:04:28;2.10;;;0.90;;
43146;SDS011;28752;48.266;7.402;2023-09-19T15:06:54;2.38;;;0.70;;
43146;SDS011;28752;48.266;7.402;2023-09-19T15:09:20;1.50;;;0.80;;
43146;SDS011;28752;48.266;7.402;2023-09-19T15:11:50;2.88;;;1.00;;
43146;SDS011;28752;48.266;7.402;2023-09-19T15:14:17;3.10;;;1.05;;
43146;SDS011;28752;48.266;7.402;2023-09-19T15:16:43;2.13;;;0.80;;
43146;SDS011;28752;48.266;7.402;2023-09-19T15:21:35;3.42;;;1.20;;
43146;SDS011;28752;48.266;7.402;2023-09-19T15:24:00;2.03;;;0.80;;
43146;SDS011;28752;48.266;7.402;2023-09-19T15:26:26;3.37;;;0.90;;
43146;SDS011;28752;48.266;7.402;2023-09-19T15:28:52;1.77;;;1.00;;
43146;SDS011;28752;48.266;7.402;2023-09-19T15:31:19;3.33;;;0.88;;
43146;SDS011;28752;48.266;7.402;2023-09-19T15:33:44;2.67;;;0.88;;
43146;SDS011;28752;48.266;7.402;2023-09-19T15:36:11;1.95;;;1.00;;
43146;SDS011;28752;48.266;7.402;2023-09-19T15:41:16;2.20;;;1.00;;
43146;SDS011;28752;48.266;7.402;2023-09-19T15:43:42;2.70;;;1.00;;
43146;SDS011;28752;48.266;7.402;2023-09-19T15:46:07;1.95;;;1.00;;
43146;SDS011;28752;48.266;7.402;2023-09-19T15:48:32;3.53;;;1.20;;
43146;SDS011;28752;48.266;7.402;2023-09-19T15:51:02;2.67;;;0.98;;
43146;SDS011;28752;48.266;7.402;2023-09-19T15:53:29;3.85;;;1.20;;
43146;SDS011;28752;48.266;7.402;2023-09-19T15:56:10;2.58;;;1.20;;
43146;SDS011;28752;48.266;7.402;2023-09-19T15:58:36;3.20;;;1.50;;
43146;SDS011;28752;48.266;7.402;2023-09-19T16:01:07;2.88;;;1.30;;
43146;SDS011;28752;48.266;7.402;2023-09-19T16:03:36;2.90;;;1.25;;
43146;SDS011;28752;48.266;7.402;2023-09-19T16:06:12;3.08;;;1.58;;
43146;SDS011;28752;48.266;7.402;2023-09-19T16:08:41;2.35;;;1.23;;
43146;SDS011;28752;48.266;7.402;2023-09-19T16:11:08;2.70;;;1.30;;
43146;SDS011;28752;48.266;7.402;2023-09-19T16:13:34;3.17;;;1.48;;
43146;SDS011;28752;48.266;7.402;2023-09-19T16:16:00;4.38;;;1.60;;
43146;SDS011;28752;48.266;7.402;2023-09-19T16:18:26;3.75;;;1.67;;
43146;SDS011;28752;48.266;7.402;2023-09-19T16:20:51;3.17;;;1.40;;
43146;SDS011;28752;48.266;7.402;2023-09-19T16:23:17;3.25;;;1.42;;
43146;SDS011;28752;48.266;7.402;2023-09-19T16:25:43;3.60;;;1.55;;
43146;SDS011;28752;48.266;7.402;2023-09-19T16:28:09;3.83;;;1.65;;
43146;SDS011;28752;48.266;7.402;2023-09-19T16:30:35;5.10;;;2.22;;
43146;SDS011;28752;48.266;7.402;2023-09-19T16:33:00;2.43;;;1.20;;
43146;SDS011;28752;48.266;7.402;2023-09-19T16:35:25;2.60;;;1.30;;
43146;SDS011;28752;48.266;7.402;2023-09-19T16:37:51;3.30;;;1.42;;
43146;SDS011;28752;48.266;7.402;2023-09-19T16:40:16;2.90;;;1.40;;
43146;SDS011;28752;48.266;7.402;2023-09-19T16:42:41;3.63;;;1.77;;
43146;SDS011;28752;48.266;7.402;2023-09-19T16:45:07;3.17;;;1.50;;
43146;SDS011;28752;48.266;7.402;2023-09-19T16:47:34;2.58;;;1.30;;
43146;SDS011;28752;48.266;7.402;2023-09-19T16:49:59;3.42;;;1.10;;
43146;SDS011;28752;48.266;7.402;2023-09-19T16:52:24;2.73;;;1.23;;